Time;durP1;ratioP1;P1;durP2;ratioP2;P2;SDS_P1;SDS_P2;PMS_P1;PMS_P2;Temp;Humidity;BMP_temperature;BMP_pressure;BME280_temperature;BME280_humidity;BME280_pressure;Samples;Min_cycle;Max_cycle;Signal;HPM_P1;HPM_P2
2022/03/06 00:00:43;;;;;;;13.35;6.30;;;;;;;2.57;100.00;101976.88;5036396;28;20033;-64
2022/03/06 00:03:09;;;;;;;23.80;9.60;;;;;;;2.57;100.00;101982.13;5038699;28;20114;-65
2022/03/06 00:05:34;;;;;;;19.77;6.68;;;;;;;2.56;100.00;101985.69;5034563;28;20032;-63
2022/03/06 00:08:02;;;;;;;18.80;6.78;;;;;;;2.53;100.00;101975.44;5034974;28;20127;-64
2022/03/06 00:10:27;;;;;;;15.18;5.72;;;;;;;2.53;100.00;101982.44;5036441;28;20048;-64
2022/03/06 00:12:53;;;;;;;15.63;6.97;;;;;;;2.53;100.00;101988.53;5039639;28;20028;-64
2022/03/06 00:15:19;;;;;;;17.60;8.80;;;;;;;2.55;100.00;101988.41;5035795;28;20029;-65
2022/03/06 00:17:45;;;;;;;25.92;8.98;;;;;;;2.53;100.00;101991.16;5034545;28;20094;-64
2022/03/06 00:20:11;;;;;;;13.80;7.55;;;;;;;2.56;100.00;101983.09;5038093;28;20490;-64
2022/03/06 00:22:37;;;;;;;16.60;6.07;;;;;;;2.54;100.00;101991.97;5035679;28;20056;-64
2022/03/06 00:25:04;;;;;;;15.85;5.18;;;;;;;2.56;100.00;101987.50;5041322;28;20036;-64
2022/03/06 00:27:30;;;;;;;14.43;5.15;;;;;;;2.54;100.00;101994.59;5029321;28;20033;-64
2022/03/06 00:29:55;;;;;;;11.88;5.38;;;;;;;2.52;100.00;101999.09;5035006;28;20531;-64
2022/03/06 00:32:21;;;;;;;15.13;6.53;;;;;;;2.54;100.00;101998.06;5035931;28;20445;-64
2022/03/06 00:34:48;;;;;;;14.52;5.68;;;;;;;2.52;100.00;101993.84;5038515;28;20427;-65
2022/03/06 00:37:14;;;;;;;9.20;5.45;;;;;;;2.55;100.00;101994.47;5029733;28;20060;-64
2022/03/06 00:39:39;;;;;;;16.52;6.05;;;;;;;2.55;100.00;102004.13;5038095;28;20399;-66
2022/03/06 00:42:06;;;;;;;16.35;6.07;;;;;;;2.53;100.00;101999.00;5036951;28;20041;-66
2022/03/06 00:44:32;;;;;;;17.15;6.60;;;;;;;2.54;100.00;102003.28;5034804;28;20064;-65
2022/03/06 00:46:57;;;;;;;23.95;5.50;;;;;;;2.52;100.00;102006.94;5035309;28;20502;-60
2022/03/06 00:49:23;;;;;;;15.63;5.60;;;;;;;2.55;100.00;102004.13;5038566;28;20030;-64
2022/03/06 00:51:48;;;;;;;10.50;4.03;;;;;;;2.53;100.00;102006.00;5033808;28;20095;-65
2022/03/06 00:54:13;;;;;;;11.77;6.10;;;;;;;2.53;100.00;102008.63;5035980;28;20041;-64
2022/03/06 00:56:39;;;;;;;16.02;6.22;;;;;;;2.53;100.00;102000.75;5040336;28;20103;-64
2022/03/06 00:59:04;;;;;;;11.90;5.97;;;;;;;2.50;100.00;102008.81;5036031;28;20039;-63
2022/03/06 01:01:29;;;;;;;11.02;4.93;;;;;;;2.49;100.00;102009.78;5036665;28;20024;-63
2022/03/06 01:03:55;;;;;;;17.63;5.65;;;;;;;2.48;100.00;102006.31;5041065;28;20048;-63
2022/03/06 01:06:20;;;;;;;14.90;5.55;;;;;;;2.46;100.00;102008.19;5041393;28;20131;-64
2022/03/06 01:08:45;;;;;;;12.65;6.53;;;;;;;2.44;100.00;102017.09;5040573;28;20466;-64
2022/03/06 01:11:11;;;;;;;10.82;5.65;;;;;;;2.41;100.00;102010.28;5040081;28;20398;-64
2022/03/06 01:13:36;;;;;;;17.13;6.43;;;;;;;2.40;100.00;102017.28;5046592;28;20053;-63
2022/03/06 01:16:02;;;;;;;14.38;5.53;;;;;;;2.40;100.00;102024.28;5040700;28;20068;-63
2022/03/06 01:18:27;;;;;;;13.70;4.78;;;;;;;2.35;100.00;102023.75;5033653;28;20029;-63
2022/03/06 01:20:52;;;;;;;11.35;4.72;;;;;;;2.33;100.00;102016.00;5038772;28;20036;-64
2022/03/06 01:23:18;;;;;;;9.02;4.97;;;;;;;2.29;100.00;102026.78;5045180;28;20056;-64
2022/03/06 01:25:43;;;;;;;15.43;4.90;;;;;;;2.26;100.00;102026.97;5056060;28;20505;-63
2022/03/06 01:28:09;;;;;;;13.68;5.10;;;;;;;2.25;100.00;102023.53;5043292;28;20025;-64
2022/03/06 01:30:34;;;;;;;13.93;4.43;;;;;;;2.25;100.00;102023.53;5034797;28;20471;-61
2022/03/06 01:33:00;;;;;;;13.95;5.38;;;;;;;2.24;100.00;102016.59;5047330;28;20111;-63
2022/03/06 01:35:25;;;;;;;10.63;4.72;;;;;;;2.21;100.00;102014.19;5051050;28;20490;-64
2022/03/06 01:37:51;;;;;;;20.88;5.70;;;;;;;2.18;100.00;102020.44;5043021;28;20029;-54
2022/03/06 01:40:20;;;;;;;20.33;4.35;;;;;;;2.16;100.00;102014.47;5035710;28;20094;-64
2022/03/06 01:42:47;;;;;;;12.38;4.72;;;;;;;2.13;100.00;102014.69;5036555;28;20045;-64
2022/03/06 01:45:14;;;;;;;9.00;5.32;;;;;;;2.11;100.00;102026.19;5040833;28;20032;-63
2022/03/06 01:47:42;;;;;;;8.68;3.10;;;;;;;2.10;100.00;102029.75;5040802;28;20045;-64
2022/03/06 01:50:21;;;;;;;17.35;4.53;;;;;;;2.09;100.00;102022.81;5032874;28;20049;-63
2022/03/06 01:52:48;;;;;;;7.80;4.95;;;;;;;2.06;100.00;102023.00;5038917;28;20095;-63
2022/03/06 01:55:15;;;;;;;8.13;3.20;;;;;;;2.03;100.00;102023.22;5044833;28;20044;-62
2022/03/06 01:57:42;;;;;;;10.80;4.93;;;;;;;2.01;100.00;102014.63;5039513;28;20108;-63
2022/03/06 02:00:12;;;;;;;15.10;5.45;;;;;;;1.98;100.00;102017.44;5032866;28;20029;-63
2022/03/06 02:02:42;;;;;;;11.50;3.63;;;;;;;1.96;100.00;102018.38;5038563;28;20561;-63
2022/03/06 02:05:08;;;;;;;9.23;4.13;;;;;;;1.93;100.00;102020.34;5050402;28;20098;-63
2022/03/06 02:07:34;;;;;;;10.45;3.90;;;;;;;1.94;100.00;102016.81;5039249;28;20116;-63
2022/03/06 02:10:00;;;;;;;7.38;3.75;;;;;;;1.90;100.00;102017.91;5036215;28;20120;-63
2022/03/06 02:12:26;;;;;;;10.77;3.72;;;;;;;1.90;100.00;102023.16;5027985;28;20037;-64
2022/03/06 02:15:00;;;;;;;5.70;3.15;;;;;;;1.85;100.00;102014.75;5054045;28;20413;-56
2022/03/06 02:17:26;;;;;;;13.65;4.55;;;;;;;1.82;100.00;102012.34;5041222;28;20057;-62
2022/03/06 02:19:57;;;;;;;8.27;3.72;;;;;;;1.82;100.00;102013.16;5029927;28;20029;-63
2022/03/06 02:22:25;;;;;;;9.05;4.32;;;;;;;1.81;100.00;102013.25;5032240;28;20407;-64
2022/03/06 02:24:51;;;;;;;9.65;3.40;;;;;;;1.80;100.00;102015.03;5036123;28;20502;-63
2022/03/06 02:27:17;;;;;;;7.80;3.25;;;;;;;1.77;100.00;102015.22;5030803;28;20120;-63
2022/03/06 02:29:43;;;;;;;9.20;3.40;;;;;;;1.78;100.00;102005.59;5033838;28;20116;-64
2022/03/06 02:32:10;;;;;;;7.55;3.20;;;;;;;1.82;100.00;102015.78;5035937;28;20036;-64
2022/03/06 02:34:37;;;;;;;10.65;4.68;;;;;;;1.81;100.00;102019.34;5029011;28;20044;-62
2022/03/06 02:37:03;;;;;;;10.35;3.58;;;;;;;1.80;100.00;102017.66;5033463;28;20119;-63
2022/03/06 02:39:28;;;;;;;7.80;2.85;;;;;;;1.80;100.00;102017.66;5033266;28;20510;-63
2022/03/06 02:41:54;;;;;;;8.77;3.83;;;;;;;1.81;100.00;102013.25;5036195;28;20131;-63
2022/03/06 02:44:21;;;;;;;10.32;3.65;;;;;;;1.81;100.00;102008.03;5028872;28;20417;-64
2022/03/06 02:46:47;;;;;;;17.80;3.78;;;;;;;1.81;100.00;102013.25;5036017;28;20187;-62
2022/03/06 02:49:13;;;;;;;6.78;3.92;;;;;;;1.78;100.00;102010.84;5030966;28;20437;-60
2022/03/06 02:51:44;;;;;;;10.25;4.18;;;;;;;1.77;100.00;102015.22;5033527;28;20040;-63
2022/03/06 02:54:10;;;;;;;;;;;;;;;1.73;100.00;102005.91;5033346;28;20029;-62
2022/03/06 02:56:36;;;;;;;13.63;3.45;;;;;;;1.70;100.00;102009.56;5036258;28;19921;-62
2022/03/06 02:59:02;;;;;;;11.60;3.53;;;;;;;1.68;100.00;102008.00;5037515;28;20078;-62
2022/03/06 03:01:28;;;;;;;6.65;3.33;;;;;;;1.66;100.00;102015.06;5034051;28;20025;-62
2022/03/06 03:03:53;;;;;;;8.27;4.72;;;;;;;1.65;100.00;102016.00;5033637;28;20039;-63
2022/03/06 03:06:18;;;;;;;8.35;3.42;;;;;;;1.63;100.00;102020.50;5036428;28;20053;-63
2022/03/06 03:08:46;;;;;;;9.02;3.20;;;;;;;1.63;100.00;102021.34;5033572;28;20052;-62
2022/03/06 03:11:12;;;;;;;6.13;2.60;;;;;;;1.67;100.00;102019.34;5033124;28;20047;-61
2022/03/06 03:13:37;;;;;;;11.48;3.47;;;;;;;1.70;100.00;102016.56;5038489;28;20033;-63
2022/03/06 03:16:03;;;;;;;11.25;2.75;;;;;;;1.72;100.00;102019.91;5038025;28;20190;-62
2022/03/06 03:18:29;;;;;;;7.47;3.30;;;;;;;1.73;100.00;102019.00;5041692;28;20035;-56
2022/03/06 03:20:55;;;;;;;8.15;1.83;;;;;;;1.79;100.00;102013.38;5034241;28;20375;-63
2022/03/06 03:23:20;;;;;;;7.15;3.08;;;;;;;1.81;100.00;102019.34;5032737;28;20035;-62
2022/03/06 03:25:46;;;;;;;13.63;3.60;;;;;;;1.82;100.00;102013.16;5044137;28;20060;-63
2022/03/06 03:28:11;;;;;;;5.25;2.42;;;;;;;1.86;100.00;102014.66;5034107;28;20038;-62
2022/03/06 03:30:37;;;;;;;5.43;2.13;;;;;;;1.87;100.00;102012.88;5042495;28;20033;-62
2022/03/06 03:33:02;;;;;;;4.78;2.10;;;;;;;1.90;100.00;102020.53;5039337;28;20115;-62
2022/03/06 03:35:28;;;;;;;4.35;1.95;;;;;;;1.90;100.00;102016.13;5047530;28;20926;-62
2022/03/06 03:37:54;;;;;;;7.50;2.67;;;;;;;1.90;100.00;102012.69;5034588;28;20366;-62
2022/03/06 03:40:19;;;;;;;6.72;1.92;;;;;;;1.89;100.00;102017.09;5030701;28;20036;-62
2022/03/06 03:42:45;;;;;;;4.13;1.75;;;;;;;1.89;100.00;102011.03;5053830;28;20063;-61
2022/03/06 03:45:10;;;;;;;5.50;1.73;;;;;;;1.89;100.00;102006.63;5052031;28;20029;-62
2022/03/06 03:47:36;;;;;;;4.00;2.35;;;;;;;1.91;100.00;101999.53;5035391;28;20053;-57
2022/03/06 03:50:02;;;;;;;8.65;3.00;;;;;;;1.95;100.00;102008.84;5028741;28;20033;-62
2022/03/06 03:52:27;;;;;;;5.25;1.92;;;;;;;1.94;100.00;102004.56;5050044;28;20037;-60
2022/03/06 03:54:53;;;;;;;2.90;1.85;;;;;;;1.92;100.00;102009.03;5042914;28;20036;-61
2022/03/06 03:57:18;;;;;;;2.67;1.88;;;;;;;1.92;100.00;102005.59;5035141;28;20206;-60
2022/03/06 03:59:44;;;;;;;3.53;1.50;;;;;;;1.91;100.00;102015.22;5026711;28;20486;-60
2022/03/06 04:02:09;;;;;;;3.20;1.38;;;;;;;1.88;100.00;102015.38;5042337;28;20041;-63
2022/03/06 04:04:34;;;;;;;2.88;1.58;;;;;;;1.86;100.00;102011.19;5047803;28;20068;-62
2022/03/06 04:07:00;;;;;;;8.40;2.70;;;;;;;1.89;100.00;102013.63;5037860;28;20020;-62
2022/03/06 04:09:25;;;;;;;8.90;2.08;;;;;;;1.90;100.00;102017.91;5033554;28;20026;-62
2022/03/06 04:11:51;;;;;;;2.55;0.85;;;;;;;1.89;100.00;102006.63;5046546;28;20491;-63
2022/03/06 04:14:17;;;;;;;8.85;1.65;;;;;;;1.88;100.00;102015.38;5040678;28;20394;-63
2022/03/06 04:16:42;;;;;;;3.58;1.42;;;;;;;1.88;100.00;102022.41;5041585;28;20035;-62
2022/03/06 04:19:09;;;;;;;5.00;1.20;;;;;;;1.91;100.00;102019.59;5030696;28;20033;-63
2022/03/06 04:21:35;;;;;;;5.25;1.52;;;;;;;1.95;100.00;102023.69;5025429;28;20037;-63
2022/03/06 04:24:01;;;;;;;6.53;1.63;;;;;;;1.94;100.00;102035.94;5033813;28;20033;-59
2022/03/06 04:26:26;;;;;;;2.58;1.27;;;;;;;1.96;100.00;102023.63;5034713;28;20076;-63
2022/03/06 04:28:51;;;;;;;8.45;1.50;;;;;;;1.98;100.00;102027.91;5042591;28;20089;-60
2022/03/06 04:31:16;;;;;;;2.55;1.25;;;;;;;1.97;100.00;102029.69;5038916;28;20056;-62
2022/03/06 04:33:42;;;;;;;2.53;1.00;;;;;;;1.96;100.00;102028.84;5045131;28;20091;-62
2022/03/06 04:36:08;;;;;;;6.28;1.85;;;;;;;1.99;100.00;102033.06;5035840;28;20554;-62
2022/03/06 04:38:34;;;;;;;4.32;1.33;;;;;;;2.00;100.00;102037.34;5030529;28;20287;-62
2022/03/06 04:40:59;;;;;;;2.78;1.08;;;;;;;1.99;100.00;102040.91;5040851;28;20041;-62
2022/03/06 04:43:25;;;;;;;5.30;1.55;;;;;;;1.96;100.00;102036.69;5048024;28;20044;-62
2022/03/06 04:45:51;;;;;;;4.05;0.98;;;;;;;1.96;100.00;102048.91;5031679;28;20029;-63
2022/03/06 04:48:16;;;;;;;10.40;0.82;;;;;;;1.93;100.00;102055.19;5046860;28;20256;-63
2022/03/06 04:50:41;;;;;;;8.55;1.67;;;;;;;1.94;100.00;102050.81;5037729;28;20037;-62
2022/03/06 04:53:07;;;;;;;4.53;1.25;;;;;;;1.94;100.00;102051.66;5049609;28;20578;-61
2022/03/06 04:55:32;;;;;;;9.98;1.52;;;;;;;1.99;100.00;102047.88;5032510;28;20025;-63
2022/03/06 04:57:58;;;;;;;3.45;1.05;;;;;;;1.99;100.00;102053.13;5039996;28;20029;-63
2022/03/06 05:00:23;;;;;;;2.75;1.00;;;;;;;1.97;100.00;102055.84;5031914;28;20032;-63
2022/03/06 05:02:49;;;;;;;3.60;1.25;;;;;;;1.96;100.00;102054.16;5047755;28;20060;-63
2022/03/06 05:05:14;;;;;;;7.63;1.25;;;;;;;1.99;100.00;102053.13;5039821;28;20029;-62
2022/03/06 05:07:40;;;;;;;4.47;0.90;;;;;;;2.00;100.00;102052.19;5039633;28;20053;-62
2022/03/06 05:10:09;;;;;;;0.93;0.70;;;;;;;2.00;100.00;102054.81;5037806;28;20443;-62
2022/03/06 05:12:36;;;;;;;5.68;2.15;;;;;;;1.98;100.00;102051.44;5041719;28;20079;-63
2022/03/06 05:15:02;;;;;;;4.78;1.98;;;;;;;1.97;100.00;102058.47;5040945;28;20037;-62
2022/03/06 05:17:28;;;;;;;9.07;1.60;;;;;;;2.00;100.00;102057.44;5041613;28;20094;-61
2022/03/06 05:19:53;;;;;;;2.90;0.75;;;;;;;2.00;100.00;102055.66;5039885;28;20033;-63
2022/03/06 05:22:19;;;;;;;3.90;0.90;;;;;;;2.00;100.00;102060.03;5039007;28;20037;-62
2022/03/06 05:24:44;;;;;;;7.95;1.77;;;;;;;2.00;100.00;102063.50;5047383;28;20136;-63
2022/03/06 05:27:09;;;;;;;1.33;1.23;;;;;;;2.01;100.00;102062.53;5040278;28;20040;-62
2022/03/06 05:29:35;;;;;;;8.13;2.03;;;;;;;2.00;100.00;102060.03;5051357;28;20040;-63
2022/03/06 05:32:00;;;;;;;0.88;0.52;;;;;;;2.00;100.00;102060.88;5036902;28;20021;-62
2022/03/06 05:34:25;;;;;;;4.10;1.25;;;;;;;2.00;100.00;102066.13;5030416;28;20041;-62
2022/03/06 05:36:51;;;;;;;2.20;0.90;;;;;;;2.00;100.00;102060.88;5037054;28;20469;-62
2022/03/06 05:39:16;;;;;;;1.80;0.70;;;;;;;2.01;100.00;102064.31;5044525;28;20037;-62
2022/03/06 05:41:41;;;;;;;0.65;0.60;;;;;;;2.00;100.00;102070.50;5043421;28;20036;-63
2022/03/06 05:44:07;;;;;;;6.38;1.13;;;;;;;1.99;100.00;102074.03;5041569;28;20134;-61
2022/03/06 05:46:32;;;;;;;13.63;1.55;;;;;;;1.98;100.00;102077.59;5035714;28;20056;-62
2022/03/06 05:48:58;;;;;;;2.28;1.45;;;;;;;1.96;100.00;102073.31;5049009;28;20146;-62
2022/03/06 05:51:23;;;;;;;4.05;0.85;;;;;;;1.96;100.00;102081.19;5041157;28;20548;-63
2022/03/06 05:53:48;;;;;;;4.95;2.83;;;;;;;2.00;100.00;102079.19;5035388;28;20524;-60
2022/03/06 05:56:14;;;;;;;1.73;0.60;;;;;;;2.04;100.00;102071.97;5037945;28;20410;-62
2022/03/06 05:58:39;;;;;;;1.55;0.90;;;;;;;2.04;100.00;102071.97;5052002;28;20379;-62
2022/03/06 06:01:04;;;;;;;1.77;1.30;;;;;;;2.02;100.00;102085.19;5042498;28;20066;-62
2022/03/06 06:03:30;;;;;;;2.22;0.90;;;;;;;2.02;100.00;102092.19;5027544;28;20065;-62
2022/03/06 06:05:55;;;;;;;2.55;1.08;;;;;;;2.03;100.00;102091.25;5036317;28;20064;-59
2022/03/06 06:08:20;;;;;;;6.03;1.00;;;;;;;2.05;100.00;102094.59;5042374;28;20029;-59
2022/03/06 06:10:46;;;;;;;3.63;0.75;;;;;;;2.02;100.00;102100.88;5035820;28;20041;-60
2022/03/06 06:13:14;;;;;;;3.83;1.10;;;;;;;2.02;100.00;102102.66;5032156;28;20060;-62
2022/03/06 06:15:43;;;;;;;5.28;1.02;;;;;;;2.02;100.00;102100.88;5041955;28;20029;-61
2022/03/06 06:18:08;;;;;;;2.63;0.88;;;;;;;2.04;100.00;102103.38;5047343;28;20037;-60
2022/03/06 06:20:36;;;;;;;1.48;0.82;;;;;;;2.07;100.00;102100.59;5037204;28;20493;-60
2022/03/06 06:23:03;;;;;;;5.63;0.82;;;;;;;2.07;100.00;102111.06;5041094;28;20041;-60
2022/03/06 06:25:28;;;;;;;2.22;0.90;;;;;;;2.08;100.00;102104.88;5045576;28;20032;-58
2022/03/06 06:27:54;;;;;;;3.38;0.55;;;;;;;2.11;100.00;102092.44;5045848;28;20509;-62
2022/03/06 06:30:20;;;;;;;7.15;1.33;;;;;;;2.14;100.00;102114.94;5035530;28;20029;-62
2022/03/06 06:32:45;;;;;;;3.92;0.60;;;;;;;2.10;100.00;102119.53;5036220;28;20108;-60
2022/03/06 06:35:10;;;;;;;4.13;1.20;;;;;;;2.10;100.00;102108.25;5036677;28;20056;-61
2022/03/06 06:37:36;;;;;;;1.50;0.73;;;;;;;2.12;100.00;102116.84;5033973;28;20032;-62
2022/03/06 06:40:02;;;;;;;6.68;1.05;;;;;;;2.12;100.00;102114.22;5034598;28;20033;-59
2022/03/06 06:42:28;;;;;;;1.65;0.82;;;;;;;2.10;100.00;102123.94;5030488;28;20095;-60
2022/03/06 06:44:53;;;;;;;4.43;2.28;;;;;;;2.11;100.00;102120.38;5033173;28;20024;-59
2022/03/06 06:47:18;;;;;;;4.90;1.40;;;;;;;2.12;100.00;102130.75;5036962;28;20033;-62
2022/03/06 06:49:44;;;;;;;6.68;0.63;;;;;;;2.11;100.00;102125.63;5042503;28;20024;-62
2022/03/06 06:52:09;;;;;;;4.22;1.30;;;;;;;2.09;100.00;102137.94;5043277;28;20034;-58
2022/03/06 06:54:35;;;;;;;3.58;0.85;;;;;;;2.14;100.00;102141.13;5025957;28;20038;-63
2022/03/06 06:57:00;;;;;;;2.75;0.88;;;;;;;2.13;100.00;102134.22;5034428;28;20028;-62
2022/03/06 06:59:25;;;;;;;2.10;0.82;;;;;;;2.13;100.00;102134.22;5035841;28;20096;-61
2022/03/06 07:01:51;;;;;;;2.75;0.85;;;;;;;2.10;100.00;102130.00;5027637;28;20036;-59
2022/03/06 07:04:17;;;;;;;2.45;0.70;;;;;;;2.10;100.00;102140.47;5029313;28;20036;-62
2022/03/06 07:06:42;;;;;;;8.73;0.77;;;;;;;2.06;100.00;102136.38;5040478;28;20060;-62
2022/03/06 07:09:08;;;;;;;3.05;1.02;;;;;;;2.05;100.00;102136.47;5035393;28;20057;-59
2022/03/06 07:11:33;;;;;;;2.88;1.05;;;;;;;2.05;100.00;102139.94;5035586;28;20026;-62
2022/03/06 07:13:59;;;;;;;4.55;2.22;;;;;;;2.05;100.00;102131.25;5036449;28;20028;-62
2022/03/06 07:16:24;;;;;;;5.22;1.40;;;;;;;2.09;100.00;102145.78;5034056;28;20102;-60
2022/03/06 07:18:50;;;;;;;1.13;0.63;;;;;;;2.10;100.00;102155.34;5042340;28;20038;-62
2022/03/06 07:21:15;;;;;;;1.95;0.43;;;;;;;2.10;100.00;102147.50;5036522;28;20040;-63
2022/03/06 07:23:40;;;;;;;6.72;0.80;;;;;;;2.14;100.00;102148.97;5036531;28;20041;-63
2022/03/06 07:26:06;;;;;;;3.97;0.80;;;;;;;2.15;100.00;102148.06;5035726;28;20076;-62
2022/03/06 07:28:31;;;;;;;1.80;1.50;;;;;;;2.17;100.00;102154.03;5032992;28;20032;-62
2022/03/06 07:30:57;;;;;;;3.60;1.23;;;;;;;2.18;100.00;102158.31;5040698;28;20036;-62
2022/03/06 07:33:22;;;;;;;1.58;1.02;;;;;;;2.21;100.00;102158.13;5034047;28;20033;-62
2022/03/06 07:35:48;;;;;;;1.95;0.40;;;;;;;2.23;100.00;102161.50;5035004;28;20025;-62
2022/03/06 07:38:13;;;;;;;8.48;2.75;;;;;;;2.23;100.00;102156.25;5028611;28;20640;-62
2022/03/06 07:40:39;;;;;;;2.47;1.40;;;;;;;2.28;100.00;102156.81;5033433;28;20120;-62
2022/03/06 07:43:04;;;;;;;2.05;0.60;;;;;;;2.27;100.00;102156.91;5032655;28;20097;-62
2022/03/06 07:45:30;;;;;;;2.70;1.88;;;;;;;2.30;100.00;102167.19;5038680;28;20466;-62
2022/03/06 07:47:55;;;;;;;2.45;1.02;;;;;;;2.33;100.00;102167.00;5033863;28;20429;-62
2022/03/06 07:50:21;;;;;;;1.80;1.23;;;;;;;2.41;100.00;102159.50;5038623;28;20104;-62
2022/03/06 07:52:47;;;;;;;15.55;1.65;;;;;;;2.46;100.00;102164.47;5041249;28;20045;-62
2022/03/06 07:55:13;;;;;;;2.95;0.93;;;;;;;2.52;100.00;102171.91;5039941;28;20371;-63
2022/03/06 07:57:39;;;;;;;2.65;1.00;;;;;;;2.55;100.00;102164.69;5033631;28;20037;-62
2022/03/06 08:00:07;;;;;;;7.32;1.50;;;;;;;2.59;100.00;102181.91;5028689;28;20331;-59
2022/03/06 08:02:33;;;;;;;3.92;1.10;;;;;;;2.61;100.00;102179.19;5033747;28;20508;-61
2022/03/06 08:04:58;;;;;;;5.65;0.85;;;;;;;2.65;100.00;102177.22;5038518;28;20037;-60
2022/03/06 08:07:24;;;;;;;3.45;0.60;;;;;;;2.65;100.00;102175.44;5040214;28;20029;-61
2022/03/06 08:09:49;;;;;;;2.53;0.82;;;;;;;2.68;100.00;102182.25;5033898;28;20378;-59
2022/03/06 08:12:14;;;;;;;12.27;1.85;;;;;;;2.69;100.00;102195.25;5039916;28;20033;-60
2022/03/06 08:14:41;;;;;;;2.33;1.02;;;;;;;2.72;100.00;102188.97;5039129;28;20036;-61
2022/03/06 08:17:06;;;;;;;4.13;1.00;;;;;;;2.76;100.00;102193.94;5038497;28;20053;-53
2022/03/06 08:19:31;;;;;;;2.40;1.30;;;;;;;2.83;100.00;102191.75;5036546;28;20112;-60
2022/03/06 08:21:57;;;;;;;1.95;0.98;;;;;;;2.87;100.00;102197.66;5035555;28;20034;-62
2022/03/06 08:24:22;;;;;;;11.80;2.88;;;;;;;2.91;100.00;102193.88;5036828;28;20036;-60
2022/03/06 08:26:47;;;;;;;2.03;0.90;;;;;;;2.94;100.00;102194.50;5042889;28;20342;-60
2022/03/06 08:29:13;;;;;;;2.03;1.60;;;;;;;2.95;100.00;102190.97;5037245;28;20025;-63
2022/03/06 08:31:38;;;;;;;3.92;0.65;;;;;;;2.94;100.00;102196.28;5037969;28;20497;-62
2022/03/06 08:34:05;;;;;;;3.20;1.02;;;;;;;2.92;100.00;102195.53;5032152;28;20183;-61
2022/03/06 08:36:31;;;;;;;7.03;1.48;;;;;;;2.91;100.00;102204.34;5037366;28;20104;-59
2022/03/06 08:38:56;;;;;;;9.05;2.13;;;;;;;2.89;100.00;102198.38;5037962;28;20481;-55
2022/03/06 08:41:21;;;;;;;9.63;2.00;;;;;;;2.90;100.00;102197.44;5040937;28;20044;-60
2022/03/06 08:43:47;;;;;;;1.27;1.15;;;;;;;2.88;100.00;102204.56;5034564;28;20490;-55
2022/03/06 08:46:12;;;;;;;7.53;0.95;;;;;;;2.92;100.00;102203.41;5031642;28;20446;-58
2022/03/06 08:48:38;;;;;;;2.03;1.63;;;;;;;2.95;100.00;102205.84;5039272;28;20513;-51
2022/03/06 08:51:04;;;;;;;2.60;0.90;;;;;;;3.02;100.00;102197.50;5040925;28;20089;-62
2022/03/06 08:53:31;;;;;;;9.00;1.15;;;;;;;3.15;100.00;102194.91;5035180;28;20483;-59
2022/03/06 08:55:56;;;;;;;2.95;1.42;;;;;;;3.20;100.00;102186.72;5038376;28;20022;-57
2022/03/06 08:58:22;;;;;;;5.25;1.00;;;;;;;3.26;100.00;102195.03;5036596;28;20083;-61
2022/03/06 09:00:47;;;;;;;8.55;2.45;;;;;;;3.30;100.00;102195.66;5038283;28;20078;-58
2022/03/06 09:03:12;;;;;;;4.40;1.77;;;;;;;3.30;100.00;102192.19;5039741;28;20143;-62
2022/03/06 09:05:40;;;;;;;3.92;2.30;;;;;;;3.37;100.00;102190.84;5038416;28;20029;-59
2022/03/06 09:08:09;;;;;;;8.75;1.85;;;;;;;3.43;100.00;102203.56;5038246;28;20459;-59
2022/03/06 09:10:39;;;;;;;5.00;1.52;;;;;;;3.53;100.00;102181.00;5033978;28;20516;-60
2022/03/06 09:13:05;;;;;;;2.33;1.77;;;;;;;3.81;100.00;102195.72;5032243;28;20033;-61
2022/03/06 09:15:32;;;;;;;3.85;1.20;;;;;;;4.15;100.00;102188.13;5030225;28;20040;-62
2022/03/06 09:17:57;;;;;;;7.97;1.42;;;;;;;4.50;100.00;102192.69;5031704;28;21022;-60
2022/03/06 09:20:23;;;;;;;3.70;1.15;;;;;;;4.51;100.00;102176.81;5035211;28;20040;-55
2022/03/06 09:22:49;;;;;;;4.70;1.35;;;;;;;4.43;100.00;102181.78;5036518;28;20041;-62
2022/03/06 09:25:15;;;;;;;3.67;0.70;;;;;;;4.48;100.00;102184.91;5035069;28;20029;-55
2022/03/06 09:27:40;;;;;;;4.13;1.63;;;;;;;4.45;100.00;102185.13;5035777;28;20055;-62
2022/03/06 09:30:07;;;;;;;2.05;0.73;;;;;;;4.50;100.00;102193.53;5036063;28;20489;-62
2022/03/06 09:32:33;;;;;;;7.72;1.73;;;;;;;4.55;100.00;102188.78;5040996;28;20135;-60
2022/03/06 09:34:58;;;;;;;9.38;1.48;;;;;;;4.63;100.00;102187.41;5044129;28;20123;-62
2022/03/06 09:37:24;;;;;;;7.35;1.25;;;;;;;4.72;100.00;102189.34;5040592;28;20401;-58
2022/03/06 09:39:49;;;;;;;5.65;1.63;;;;;;;4.77;100.00;102197.75;5031793;28;20082;-59
2022/03/06 09:42:19;;;;;;;2.80;0.93;;;;;;;5.11;100.00;102193.50;5033280;28;20108;-59
2022/03/06 09:44:48;;;;;;;8.50;1.83;;;;;;;5.12;100.00;102178.56;5035705;28;20146;-61
2022/03/06 09:47:15;;;;;;;2.05;1.52;;;;;;;5.36;100.00;102173.25;5040943;28;20166;-60
2022/03/06 09:49:45;;;;;;;1.83;0.85;;;;;;;5.79;100.00;102178.72;5039012;28;20037;-62
2022/03/06 09:52:12;;;;;;;7.80;0.80;;;;;;;6.10;100.00;102165.84;5040714;28;20033;-63
2022/03/06 09:54:37;;;;;;;1.55;0.95;;;;;;;6.33;100.00;102175.38;5040346;28;20582;-62
2022/03/06 09:57:04;;;;;;;3.67;1.10;;;;;;;6.63;100.00;102171.25;5029871;28;20033;-62
2022/03/06 09:59:31;;;;;;;11.10;1.08;;;;;;;6.63;100.00;102159.88;5019753;28;20115;-56
2022/03/06 10:02:04;;;;;;;0.77;0.57;;;;;;;6.53;100.00;102167.69;5030172;28;20152;-55
2022/03/06 10:04:32;;;;;;;5.65;1.38;;;;;;;6.69;100.00;102156.75;5027153;28;20172;-57
2022/03/06 10:07:02;;;;;;;3.45;1.05;;;;;;;6.60;100.00;102173.31;5025004;28;20021;-57
2022/03/06 10:09:28;;;;;;;11.23;1.00;;;;;;;6.36;100.00;102171.66;5030632;28;20032;-49
2022/03/06 10:11:54;;;;;;;5.72;1.33;;;;;;;6.03;100.00;102176.00;5029230;28;20029;-56
2022/03/06 10:14:39;;;;;;;1.55;0.68;;;;;;;5.93;100.00;102185.53;5032237;28;20040;-60
2022/03/06 10:17:08;;;;;;;3.20;0.63;;;;;;;5.75;100.00;102177.25;5029925;28;20072;-56
2022/03/06 10:19:59;;;;;;;5.03;1.02;;;;;;;5.45;100.00;102186.56;5026745;28;20383;-50
2022/03/06 10:22:28;;;;;;;1.38;0.65;;;;;;;5.42;100.00;102181.53;5029538;28;20033;-51
2022/03/06 10:25:01;;;;;;;3.63;0.82;;;;;;;5.45;100.00;102201.50;5036801;28;20093;-59
2022/03/06 10:27:57;;;;;;;4.00;0.50;;;;;;;5.44;100.00;102191.91;5032929;28;20090;-61
2022/03/06 10:30:42;;;;;;;4.00;0.85;;;;;;;5.40;100.00;102187.88;5036005;28;20037;-61
2022/03/06 10:33:17;;;;;;;1.88;0.77;;;;;;;5.46;100.00;102179.50;5027386;28;20037;-62
2022/03/06 10:35:44;;;;;;;4.90;0.60;;;;;;;5.52;100.00;102188.72;5034023;28;20032;-54
2022/03/06 10:38:27;;;;;;;5.90;0.88;;;;;;;5.49;100.00;102191.59;5034120;28;20024;-60
2022/03/06 10:40:54;;;;;;;7.70;1.70;;;;;;;5.54;100.00;102189.44;5038262;28;20045;-61
2022/03/06 10:43:29;;;;;;;5.93;1.20;;;;;;;5.52;100.00;102191.34;5025923;28;20025;-62
2022/03/06 10:46:12;;;;;;;6.93;1.65;;;;;;;5.44;100.00;102194.56;5026627;28;20147;-53
2022/03/06 10:48:39;;;;;;;4.38;1.20;;;;;;;5.44;100.00;102181.41;5028998;28;20033;-58
2022/03/06 10:51:11;;;;;;;2.67;0.35;;;;;;;5.56;100.00;102183.09;5029316;28;20094;-56
2022/03/06 10:53:37;;;;;;;2.65;0.68;;;;;;;5.60;100.00;102196.84;5028341;28;20048;-51
2022/03/06 10:56:14;;;;;;;2.33;0.70;;;;;;;5.56;100.00;102185.75;5032720;28;20418;-54
2022/03/06 10:58:42;;;;;;;3.78;0.88;;;;;;;5.60;100.00;102189.81;5027913;28;20051;-53
2022/03/06 11:01:08;;;;;;;4.53;0.95;;;;;;;5.67;100.00;102188.38;5027973;28;20362;-51
2022/03/06 11:03:35;;;;;;;2.38;0.40;;;;;;;5.81;100.00;102204.94;5028077;28;20025;-56
2022/03/06 11:06:05;;;;;;;0.90;0.57;;;;;;;5.65;100.00;102181.56;5032849;28;20116;-58
2022/03/06 11:08:32;;;;;;;0.75;0.40;;;;;;;5.56;100.00;102195.44;5034174;28;20030;-60
2022/03/06 11:10:59;;;;;;;0.85;0.40;;;;;;;5.58;100.00;102194.38;5030802;28;20041;-61
2022/03/06 11:13:27;;;;;;;1.40;0.90;;;;;;;5.54;100.00;102192.06;5036762;28;20453;-57
2022/03/06 11:15:53;;;;;;;2.05;0.73;;;;;;;5.40;100.00;102201.84;5025645;28;20816;-57
2022/03/06 11:18:19;;;;;;;0.98;0.90;;;;;;;5.28;100.00;102204.56;5031774;28;20041;-56
2022/03/06 11:20:46;;;;;;;2.22;0.80;;;;;;;5.28;100.00;102200.13;5029007;28;20029;-55